NWWW METAR and TAF weather

Enter ICAO airport designator
Station Type Date Time Source
NWWW METAR 2019/10/23 12:30 UTC NOAA

NWWW 231230Z AUTO 15005KT CAVOK 19/14 Q1018 NOSIG


Station Type Date Time Source
NWWW Decoded METAR 2019/10/23 12:30 UTC NOAA

La Tontouta Nlle-Caledonie , New Caledonia (NWWW) 22-01S 166-13E 14M
Oct 23, 2019 - 08:30 AM EDT / 2019.10.23 1230 UTC
Wind: from the SSE (150 degrees) at 6 MPH (5 KT):0
Visibility: greater than 7 mile(s):0
Temperature: 66 F (19 C)
Dew Point: 57 F (14 C)
Relative Humidity: 72%
Pressure (altimeter): 30.06 in. Hg (1018 hPa)
ob: NWWW 231230Z AUTO 15005KT CAVOK 19/14 Q1018 NOSIG
cycle: 12

Station Type Date Time Source
NWWW TAF 2019/10/23 12:19 UTC NOAA

TAF NWWW 231100Z 2312/2412 11008KT 9999 SCT035
BECMG 2322/2324 14018KT
BECMG 2408/2410 10008KT

Example: see airport list